James M Cox Dayton International Airport
KDAY : now visible

Airfield :











YOU CAN JOIN US ON...

 
LOGIN :

Register | Disclaimer

   EN    FR    IT 

 









Legend :    VFR   Marginal VFR   IFR   Intensive IFR   Very Intensive IFR
Visi :
Ceiling :
>= 8 km
>= 3000ft
5 to 8 km
1000 to 3000 ft
1500m to 5 km
500 to 1000 ft
800 to 1500m
200 to 500 ft
< 800m
< 200 ft
Symbols :   Thunderstorms  Fog  Heavy snow  Heavy precipitations  Wind > 20 kt






- Airport Elevation : 1009 ft
- IATA code : DAY


KDAY - James M Cox Dayton International

CURRENT METAR :
  • 301617Z 34008KT 10SM FEW015 SCT029 OVC037 06/04 A3023 RMK AO2 CIG 029 RWY 6L T00610039

EXPIRED METARs :
  • 301556Z 35012KT 10SM SCT015 SCT020 OVC026 06/03 A3023 RMK AO2 SLP241 T00560033
  • 301456Z 32013G16KT 10SM SCT019 BKN028 OVC033 06/03 A3019 RMK AO2 RAE04 SLP229 P0000 60002 T00610033 51031
  • 301356Z 34004KT 5SM -RA BR BKN017 OVC025 04/04 A3017 RMK AO2 RAB22 CIG 012 RWY 6L SLP222 P0002 T00440039
  • 301332Z 34009KT 9SM -RA BKN016 BKN027 OVC036 05/03 A3016 RMK AO2 RAB22 P0000 T00500033

TAF KDAY
Valid from the 30 at 15:00 until the 31 at 12:00 UTC


301437Z 3015/3112 33012KT P6SM BKN025 OVC035
TEMPO 3015/3016 BKN018 OVC025
FM301600 33011KT P6SM BKN035
FM310000 VRB03KT P6SM SCT250
KZID FIR / North America



MET'MAP, your aeronautical weather chart ! - Copyright ORBIFLY December 2007 - Disclaimer

ORBIFLY MET'MAP TEAM :

Programming & Development : Alexandra Zaïnal
Concept & original design : Baudouin d'Aumeries
Assistance for programming : Marc-Olivier Méhu
Technical & hardware support : Manuel Goepfert

Contact : metmap@orbifly.com




SOURCES & CREDITS :

   NOAA       Earth
Advisory